• Join FlightAware (Why Join?)
  • Login
  • US Flag 
Rudolph Flight #1: Arrived! 
04:42AM EST


 

Airport Tracker/Info


-or-


 

Live Flight TrackerFlight Track Log ✈ SWA1881 ✈ 16-Jun-2013 ✈ KMDW - KLAX

Flight Track Log - Related Links

Times and Time Zones

All times are in EDT time to prevent confusion due to time zone crossing. See the SWA1881 flight status page for this flight to view local times or setup timezone preferences in your user account.

Time Position Orientation Groundspeed Altitude Reporting Facility
EDT Latitude Longitude Course Direction KTS MPH feet Rate Location/Type
12:54PM 41.7500 -87.8333 282° West 205 236 3,000  Level Chicago TRACON
12:55PM 41.7500 -87.9167 270° West 254 292 5,200 2,040 Climbing Chicago TRACON
12:55PM 41.7489 -87.9214 252° West 234 269 5,400 3,120 Climbing Chicago Center
12:56PM 41.7511 -88.0372 272° West 272 313 9,300 3,240 Climbing Chicago Center
12:57PM 41.7847 -88.1236 298° West 267 307 12,200 2,400 Climbing Chicago Center
12:58PM 41.7789 -88.2258 266° West 281 323 14,300 1,800 Climbing Chicago Center
12:59PM 41.8932 -88.4386 282° West  Level FlightAware Approximate
12:59PM 41.7728 -88.3428 266° West 307 353 16,000  Level Chicago Center
01:00PM 41.7656 -88.5017 267° West 355 409 18,000 1,980 Climbing Chicago Center
01:01PM 41.7594 -88.6408 267° West 375 432 20,200 2,100 Climbing Chicago Center
01:02PM 41.7394 -88.7808 259° West 385 443 22,400 1,920 Climbing Chicago Center
01:03PM 41.7100 -88.9183 254° West 388 447 24,200 1,500 Climbing Chicago Center
01:04PM 41.6786 -89.0594 253° West 397 457 25,500 1,380 Climbing Chicago Center
01:06PM 41.6411 -89.2347 254° West 411 473 27,100 1,860 Climbing Chicago Center
01:07PM 41.6083 -89.3797 253° West 411 473 29,400 1,980 Climbing Chicago Center
01:08PM 41.5786 -89.5158 254° West 391 450 31,200 1,440 Climbing Chicago Center
01:09PM 41.5461 -89.6600 253° West 383 441 32,400 960 Climbing Chicago Center
01:10PM 41.5158 -89.7964 254° West 384 442 33,300 720 Climbing Chicago Center
01:11PM 41.4856 -89.9306 253° West 382 440 34,000 300 Climbing Chicago Center
01:12PM 41.4547 -90.0667 253° West 384 442 34,000 480 Level Chicago Center
01:13PM 41.4178 -90.2258 253° West 379 436 35,000 960 Climbing Chicago Center
01:14PM 41.3881 -90.3583 253° West 376 433 36,000 480 Climbing Chicago Center
01:15PM 41.3561 -90.4906 252° West 377 434 36,000  Level Chicago Center
01:16PM 41.3253 -90.6236 253° West 379 436 36,000  Level Chicago Center
01:17PM 41.2875 -90.7544 249° West 381 438 36,000  Level Chicago Center
01:19PM 41.2033 -91.0369 248° West 376 433 36,000  Level Chicago Center
01:20PM 41.1647 -91.1661 248° West 377 434 36,000  Level Chicago Center
01:21PM 41.1269 -91.2947 249° West 377 434 36,000  Level Chicago Center
01:22PM 41.0881 -91.4236 248° West 377 434 36,000  Level Chicago Center
01:23PM 41.0603 -91.5569 255° West 377 434 36,000  Level Chicago Center
01:24PM 41.0400 -91.7053 260° West 379 436 36,000  Level Chicago Center
01:25PM 41.0222 -91.8414 260° West 379 436 36,000  Level Chicago Center
01:26PM 41.0031 -91.9767 259° West 377 434 36,000  Level Chicago Center
01:27PM 40.9792 -92.1389 259° West 378 435 36,000  Level Chicago Center
01:28PM 40.9600 -92.2714 259° West 373 429 36,000  Level Chicago Center
01:29PM 40.9406 -92.4061 259° West 377 434 36,000  Level Chicago Center
01:30PM 40.9206 -92.5414 259° West 379 436 36,000  Level Chicago Center
01:31PM 40.8972 -92.7022 259° West 378 435 36,000  Level Chicago Center
01:32PM 40.8769 -92.8378 259° West 378 435 36,000  Level Chicago Center
01:33PM 40.8561 -92.9747 259° West 382 440 36,000  Level Chicago Center
01:34PM 40.8356 -93.1108 259° West 383 441 36,000  Level Chicago Center
01:36PM 40.8111 -93.2728 259° West 380 437 36,000  Level Chicago Center
01:37PM 40.7883 -93.4094 258° West 386 444 36,000  Level Chicago Center
01:38PM 40.7675 -93.5464 259° West 386 444 36,000  Level Chicago Center
01:39PM 40.7456 -93.6825 258° West 383 441 36,000  Level Chicago Center
01:39PM 40.7383 -93.7353 260° West 383 441 36,000  Level Minneapolis Center
01:40PM 40.7164 -93.8714 258° West 382 440 36,000  Level Minneapolis Center
01:41PM 40.6942 -94.0067 258° West 382 440 36,000  Level Minneapolis Center
01:42PM 40.6664 -94.1697 257° West 383 441 36,000  Level Minneapolis Center
01:43PM 40.6447 -94.3064 258° West 383 441 36,000  Level Minneapolis Center
01:44PM 40.6208 -94.4447 257° West 388 447 36,000  Level Minneapolis Center
01:45PM 40.5978 -94.5831 258° West 390 449 36,000  Level Minneapolis Center
01:46PM 40.5719 -94.7456 258° West 385 443 36,000  Level Minneapolis Center
01:47PM 40.5467 -94.8856 257° West 388 447 36,000  Level Minneapolis Center
01:48PM 40.5236 -95.0233 258° West 387 445 36,000  Level Minneapolis Center
01:49PM 40.5003 -95.1619 258° West 387 445 36,000  Level Minneapolis Center
01:50PM 40.4767 -95.2992 257° West 387 445 36,000  Level Minneapolis Center
01:51PM 40.4525 -95.4378 257° West 388 447 36,000  Level Minneapolis Center
01:52PM 40.4283 -95.5753 257° West 387 445 36,000  Level Minneapolis Center
01:53PM 40.3994 -95.7422 257° West 389 448 36,000  Level Minneapolis Center
01:55PM 40.3753 -95.8808 257° West 389 448 36,000  Level Minneapolis Center
01:56PM 40.3506 -96.0178 257° West 387 445 36,000  Level Minneapolis Center
01:57PM 40.3258 -96.1556 257° West 387 445 36,000  Level Minneapolis Center
01:58PM 40.3008 -96.2942 257° West 389 448 36,000  Level Minneapolis Center
01:59PM 40.2744 -96.4322 256° West 390 449 36,000  Level Minneapolis Center
02:00PM 40.2492 -96.5683 256° West 386 444 36,000  Level Minneapolis Center
02:01PM 40.2192 -96.7325 257° West 386 444 36,000  Level Minneapolis Center
02:02PM 40.1933 -96.8692 256° West 386 444 36,000  Level Minneapolis Center
02:03PM 40.1672 -97.0047 256° West 384 442 36,000  Level Minneapolis Center
02:04PM 40.1464 -97.1139 256° West 386 444 36,000  Level Minneapolis Center
02:05PM 40.1158 -97.2781 256° West 388 447 36,000  Level Minneapolis Center
02:06PM 40.0894 -97.4131 256° West 388 447 36,000  Level Minneapolis Center
02:07PM 40.0575 -97.5772 256° West 389 448 36,000  Level Minneapolis Center
02:08PM 40.0308 -97.7156 256° West 391 450 36,000  Level Minneapolis Center
02:09PM 40.0028 -97.8517 255° West 390 449 36,000  Level Minneapolis Center
02:10PM 39.9756 -97.9914 256° West 392 451 36,000  Level Minneapolis Center
02:11PM 39.9486 -98.1289 256° West 392 451 36,000  Level Minneapolis Center
02:12PM 39.9200 -98.2669 255° West 393 452 36,000  Level Minneapolis Center
02:13PM 39.8869 -98.4308 255° West 391 450 36,000  Level Minneapolis Center
02:14PM 39.8592 -98.5675 255° West 390 449 36,000  Level Minneapolis Center
02:15PM 39.8319 -98.7033 255° West 389 448 36,000  Level Minneapolis Center
02:16PM 39.8042 -98.8353 255° West 384 442 36,000  Level Minneapolis Center
02:17PM 39.7764 -98.9694 255° West 382 440 36,000  Level Minneapolis Center
02:18PM 39.7417 -99.1317 254° West 386 444 36,000  Level Denver Center
02:19PM 39.7142 -99.2661 255° West 385 443 36,000  Level Denver Center
02:21PM 39.6847 -99.4022 254° West 389 448 36,000  Level Denver Center
02:22PM 39.6564 -99.5375 255° West 389 448 36,000  Level Denver Center
02:23PM 39.6200 -99.7011 254° West 391 450 36,000  Level Denver Center
02:24PM 39.5911 -99.8364 255° West 389 448 36,000  Level Denver Center
02:25PM 39.5597 -99.9794 254° West 385 443 36,000  Level Denver Center
02:26PM 39.5311 -100.1075 254° West 384 442 36,000  Level Denver Center
02:27PM 39.5031 -100.2358 254° West 385 443 36,000  Level Denver Center
02:28PM 39.4697 -100.3858 254° West 387 445 36,000  Level Denver Center
02:29PM 39.4411 -100.5106 253° West 380 437 36,000  Level Denver Center
02:30PM 39.4078 -100.6622 254° West 389 448 36,000  Level Denver Center
02:31PM 39.3778 -100.7897 253° West 388 447 36,000  Level Denver Center
02:32PM 39.3442 -100.9386 254° West 387 445 36,000  Level Denver Center
02:33PM 39.3150 -101.0678 254° West 390 449 36,000  Level Denver Center
02:34PM 39.2806 -101.2178 254° West 389 448 36,000  Level Denver Center
02:35PM 39.2511 -101.3450 253° West 386 444 36,000  Level Denver Center
02:36PM 39.2164 -101.4925 253° West 385 443 36,000  Level Denver Center
02:37PM 39.1867 -101.6192 253° West 386 444 36,000  Level Denver Center
02:38PM 39.1533 -101.7592 253° West 384 442 36,000  Level Denver Center
02:39PM 39.1231 -101.8858 253° West 388 447 36,000  Level Denver Center
02:40PM 39.0875 -102.0336 253° West 388 447 36,000  Level Denver Center
02:41PM 39.0581 -102.1594 253° West 386 444 36,000  Level Denver Center
02:42PM 39.0219 -102.3075 253° West 388 447 36,000  Level Denver Center
02:43PM 38.9903 -102.4336 252° West 389 448 36,000  Level Denver Center
02:44PM 38.9553 -102.5803 253° West 386 444 36,000  Level Denver Center
02:45PM 38.9247 -102.7050 253° West 383 441 36,000  Level Denver Center
02:46PM 38.8922 -102.8369 252° West 385 443 36,000  Level Denver Center
02:47PM 38.8603 -102.9661 252° West 382 440 36,000  Level Denver Center
02:48PM 38.8219 -103.1219 253° West 381 438 36,000  Level Denver Center
02:49PM 38.7892 -103.2511 252° West 381 438 36,000  Level Denver Center
02:51PM 38.7564 -103.3811 252° West 383 441 36,000  Level Denver Center
02:52PM 38.7231 -103.5081 251° West 389 448 36,000  Level Denver Center
02:53PM 38.6861 -103.6553 252° West 389 448 36,000  Level Denver Center
02:54PM 38.6536 -103.7794 252° West 388 447 36,000  Level Denver Center
02:55PM 38.6164 -103.9244 252° West 384 442 36,000  Level Denver Center
02:56PM 38.5844 -104.0481 252° West 383 441 36,000  Level Denver Center
02:57PM 38.5281 -104.1797 241° Southwest 390 449 36,000  Level Denver Center
02:58PM 38.4644 -104.2931 234° Southwest 391 450 36,000  Level Denver Center
02:59PM 38.4003 -104.4047 234° Southwest 390 449 36,000  Level Denver Center
03:00PM 38.3372 -104.5164 234° Southwest 388 447 36,000  Level Denver Center
03:01PM 38.2636 -104.6456 234° Southwest 391 450 36,000  Level Denver Center
03:02PM 38.2025 -104.7519 234° Southwest 392 451 36,000  Level Denver Center
03:03PM 38.1264 -104.8742 232° Southwest 396 456 36,000  Level Denver Center
03:04PM 38.0614 -104.9781 232° Southwest 394 453 36,000  Level Denver Center
03:05PM 37.9850 -105.1014 232° Southwest 399 459 36,000  Level Denver Center
03:06PM 37.9208 -105.2056 232° Southwest 394 453 36,000  Level Denver Center
03:07PM 37.8464 -105.3269 232° Southwest 393 452 36,000  Level Denver Center
03:08PM 37.7861 -105.4322 234° Southwest 390 449 36,000  Level Denver Center
03:09PM 37.7144 -105.5586 234° Southwest 395 455 36,000  Level Denver Center
03:10PM 37.6572 -105.6664 236° Southwest 389 448 36,000  Level Denver Center
03:11PM 37.6231 -105.8108 253° West 382 440 36,000  Level Denver Center
03:12PM 37.5944 -105.9358 254° West 387 445 36,000  Level Denver Center
03:13PM 37.5581 -106.1011 255° West 384 442 36,000  Level Denver Center
03:14PM 37.5286 -106.2308 254° West 389 448 36,000  Level Denver Center
03:16PM 37.5014 -106.3558 255° West 388 447 36,000  Level Denver Center
03:17PM 37.4692 -106.5006 254° West 385 443 36,000  Level Denver Center
03:18PM 37.4406 -106.6267 254° West 390 449 36,000  Level Denver Center
03:19PM 37.4075 -106.7711 254° West 386 444 36,000  Level Denver Center
03:20PM 37.3792 -106.8969 254° West 391 450 36,000  Level Denver Center
03:21PM 37.3447 -107.0428 253° West 391 450 36,000  Level Denver Center
03:22PM 37.3156 -107.1692 254° West 393 452 36,000  Level Denver Center
03:23PM 37.2811 -107.3175 254° West 396 456 36,000  Level Denver Center
03:24PM 37.2517 -107.4431 254° West 394 453 36,000  Level Denver Center
03:25PM 37.2164 -107.5928 254° West 398 458 36,000  Level Denver Center
03:26PM 37.1858 -107.7211 253° West 403 464 36,000  Level Denver Center
03:27PM 37.1558 -107.8486 254° West 400 460 36,000  Level Denver Center
03:28PM 37.1192 -107.9967 253° West 399 459 36,000  Level Denver Center
03:29PM 37.0883 -108.1244 253° West 399 459 36,000  Level Denver Center
03:30PM 37.0531 -108.2722 253° West 398 458 36,000  Level Denver Center
03:31PM 37.0217 -108.3989 253° West 400 460 36,000  Level Denver Center
03:32PM 36.9861 -108.5442 253° West 394 453 36,000  Level Denver Center
03:33PM 36.9500 -108.6906 253° West 395 455 36,000  Level Denver Center
03:34PM 36.9139 -108.8350 253° West 392 451 36,000  Level Denver Center
03:35PM 36.8825 -108.9581 252° West 391 450 36,000  Level Denver Center
03:36PM 36.8467 -109.1042 253° West 394 453 36,000  Level Denver Center
03:37PM 36.8156 -109.2278 253° West 393 452 36,000  Level Denver Center
03:38PM 36.7781 -109.3717 252° West 392 451 36,000  Level Denver Center
03:39PM 36.7469 -109.4961 253° West 393 452 36,000  Level Denver Center
03:40PM 36.7092 -109.6406 252° West 395 455 36,000  Level Denver Center
03:41PM 36.6775 -109.7639 252° West 393 452 36,000  Level Denver Center
03:43PM 36.6397 -109.9069 252° West 391 450 36,000  Level Denver Center
03:44PM 36.6078 -110.0319 252° West 395 455 36,000  Level Denver Center
03:45PM 36.5711 -110.1689 252° West 396 456 36,000  Level Denver Center
03:46PM 36.5447 -110.2719 252° West 394 453 36,000  Level Denver Center
03:47PM 36.5025 -110.4272 251° West 394 453 36,000  Level Denver Center
03:48PM 36.4692 -110.5564 252° West 394 453 36,000  Level Denver Center
03:49PM 36.4339 -110.6869 251° West 397 457 36,000  Level Denver Center
03:50PM 36.3919 -110.8422 251° West 396 456 36,000  Level Denver Center
03:51PM 36.3564 -110.9733 251° West 399 459 36,000  Level Denver Center
03:52PM 36.3203 -111.1042 251° West 400 460 36,000  Level Denver Center
03:53PM 36.2844 -111.2358 251° West 401 461 36,000  Level Denver Center
03:54PM 36.2481 -111.3658 251° West 400 460 36,000  Level Denver Center
03:55PM 36.2042 -111.4931 247° West 401 461 36,000  Level Denver Center
03:56PM 36.1608 -111.6189 247° West 398 458 36,000  Level Denver Center
03:57PM 36.1250 -111.7219 247° West 400 460 36,000  Level Los Angeles Center
03:58PM 36.0817 -111.8472 247° West 398 458 36,000  Level Los Angeles Center
03:59PM 36.0378 -111.9756 247° West 395 455 36,000  Level Los Angeles Center
04:00PM 35.9939 -112.1022 247° West 401 461 36,000  Level Los Angeles Center
04:02PM 35.8978 -112.3789 247° West 403 464 36,000  Level Los Angeles Center
04:03PM 35.8531 -112.5036 246° West 403 464 36,000  Level Los Angeles Center
04:04PM 35.8086 -112.6303 247° West 406 467 36,000  Level Los Angeles Center
04:05PM 35.7572 -112.7792 247° West 401 461 36,000  Level Los Angeles Center
04:06PM 35.7122 -112.9039 246° West 404 465 36,000  Level Los Angeles Center
04:07PM 35.6636 -113.0383 246° West 401 461 36,000  Level Los Angeles Center
04:08PM 35.6183 -113.1633 246° West 401 461 36,000  Level Los Angeles Center
04:09PM 35.5711 -113.2981 247° West 400 460 36,000  Level Los Angeles Center
04:10PM 35.5258 -113.4211 246° West 401 461 36,000  Level Los Angeles Center
04:11PM 35.4811 -113.5447 246° West 400 460 36,000  Level Los Angeles Center
04:12PM 35.4353 -113.6692 246° West 402 463 36,000  Level Los Angeles Center
04:13PM 35.3897 -113.7939 246° West 403 464 36,000  Level Los Angeles Center
04:14PM 35.3350 -113.9406 245° Southwest 401 461 36,000  Level Los Angeles Center
04:15PM 35.2900 -114.0647 246° West 399 459 36,000  Level Los Angeles Center
04:16PM 35.2428 -114.1900 245° Southwest 403 464 36,000  Level Los Angeles Center
04:17PM 35.1967 -114.3142 246° West 402 463 36,000  Level Los Angeles Center
04:18PM 35.1497 -114.4400 246° West 403 464 36,000  Level Los Angeles Center
04:19PM 35.0919 -114.5928 245° Southwest 410 472 36,000  Level Los Angeles Center
04:20PM 35.0456 -114.7169 246° West 404 465 36,000  Level Los Angeles Center
04:22PM 34.9986 -114.8431 246° West 406 467 36,000  Level Los Angeles Center
04:23PM 34.9508 -114.9661 245° Southwest 402 463 36,000 -300 Level Los Angeles Center
04:24PM 34.9042 -115.0900 245° Southwest 401 461 35,400 -780 Descending Los Angeles Center
04:25PM 34.8561 -115.2142 245° Southwest 404 465 34,400 -1,020 Descending Los Angeles Center
04:26PM 34.8081 -115.3403 245° Southwest 408 470 33,400 -1,020 Descending Los Angeles Center
04:27PM 34.7494 -115.4944 245° Southwest 416 479 32,300 -720 Descending Los Angeles Center
04:28PM 34.7039 -115.6097 244° Southwest 410 472 32,000 -180 Descending Los Angeles Center
04:29PM 34.6553 -115.7358 245° Southwest 410 472 32,000  Level Los Angeles Center
04:30PM 34.6064 -115.8603 245° Southwest 410 472 32,000  Level Los Angeles Center
04:31PM 34.5467 -116.0103 244° Southwest 412 474 32,000  Level Los Angeles Center
04:32PM 34.4992 -116.1331 245° Southwest 406 467 32,000  Level Los Angeles Center
04:33PM 34.4494 -116.2544 244° Southwest 404 465 32,000  Level Los Angeles Center
04:34PM 34.4028 -116.3764 245° Southwest 400 460 32,000 -960 Level Los Angeles Center
04:35PM 34.3517 -116.5003 243° Southwest 406 467 30,100 -2,040 Descending Los Angeles Center
04:36PM 34.3042 -116.6206 244° Southwest 401 461 27,800 -2,220 Descending Los Angeles Center
04:37PM 34.2569 -116.7381 244° Southwest 392 451 25,600 -2,280 Descending Los Angeles Center
04:38PM 34.2019 -116.8758 244° Southwest 381 438 23,100 -2,400 Descending Los Angeles Center
04:39PM 34.1572 -116.9864 244° Southwest 368 423 20,600 -2,040 Descending Los Angeles Center
04:40PM 34.1128 -117.0958 244° Southwest 370 426 19,000 -1,920 Descending Los Angeles Center
04:41PM 34.0833 -117.1500 237° Southwest 358 412 17,800 -2,640 Descending Southern California TRACON
04:42PM 34.0500 -117.2667 251° West 368 423 15,300 -2,340 Descending Southern California TRACON
04:43PM 34.0333 -117.3833 260° West 354 407 13,200 -1,980 Descending Southern California TRACON
04:44PM 34.0333 -117.5000 270° West 330 380 11,400 -1,440 Descending Southern California TRACON
04:45PM 34.0333 -117.6000 270° West 300 345 10,300 -780 Descending Southern California TRACON
04:46PM 34.0167 -117.7000 259° West 290 334 9,900 -900 Descending Southern California TRACON
04:47PM 34.0167 -117.8000 270° West 279 321 8,500 -1,260 Descending Southern California TRACON
04:48PM 34.0000 -117.8833 256° West 274 315 7,400 -1,200 Descending Southern California TRACON
04:49PM 34.0000 -117.9833 270° West 275 316 6,200 -1,260 Descending Southern California TRACON
04:50PM 33.9833 -118.0667 256° West 266 306 4,900 -1,140 Descending Southern California TRACON
04:50PM 33.9800 -118.1336 267° West 265 305 4,100 -960 Descending Los Angeles Center
04:52PM 33.9722 -118.2097 263° West 243 280 3,100 -900 Descending Los Angeles Center
04:53PM 33.9664 -118.2692 263° West 193 222 2,300 -900 Descending Los Angeles Center
04:54PM 33.9592 -118.3342 262° West 175 201 1,300 -840 Descending Los Angeles Center
04:55PM 33.9556 -118.3808 265° West 157 181 600 -600 Descending Los Angeles Center
04:56PM 33.9506 -118.4217 262° West 150 173 100 -540 Descending Los Angeles Center
04:58PM 33.9425 -118.4081 259° West  Level Estimated